Time;durP1;ratioP1;P1;durP2;ratioP2;P2;SDS_P1;SDS_P2;PMS_P1;PMS_P2;Temp;Humidity;BMP_temperature;BMP_pressure;BME280_temperature;BME280_humidity;BME280_pressure;Samples;Min_cycle;Max_cycle;Signal;HPM_P1;HPM_P2
2023/07/13 00:04:50;;;;;;;11.98;2.90;;;;;;;;;;10240567;28;20560;-58
2023/07/13 00:09:50;;;;;;;4.13;2.50;;;;;;;;;;10246143;28;20157;-59
2023/07/13 00:14:51;;;;;;;4.43;3.05;;;;;;;;;;10251451;28;20442;-59
2023/07/13 00:19:51;;;;;;;5.38;2.53;;;;;;;;;;10250116;28;20364;-59
2023/07/13 00:24:56;;;;;;;7.72;2.78;;;;;;;;;;10250301;28;20031;-61
2023/07/13 00:29:56;;;;;;;5.50;2.53;;;;;;;;;;10250609;28;20039;-61
2023/07/13 00:34:58;;;;;;;5.53;2.38;;;;;;;;;;10247826;28;20027;-61
2023/07/13 00:39:58;;;;;;;7.43;3.08;;;;;;;;;;10249125;28;20031;-61
2023/07/13 00:45:11;;;;;;;6.30;2.75;;;;;;;;;;10249771;28;20031;-61
2023/07/13 00:50:16;;;;;;;4.10;2.17;;;;;;;;;;10250225;28;20070;-63
2023/07/13 00:55:17;;;;;;;6.03;2.50;;;;;;;;;;10249471;28;20485;-60
2023/07/13 01:00:21;;;;;;;7.85;2.60;;;;;;;;;;10250170;28;20103;-61
2023/07/13 01:05:22;;;;;;;5.90;2.38;;;;;;;;;;10249177;28;20317;-60
2023/07/13 01:10:24;;;;;;;6.65;2.38;;;;;;;;;;10244732;28;20027;-59
2023/07/13 01:15:34;;;;;;;5.68;2.50;;;;;;;;;;10246965;28;20039;-59
2023/07/13 01:20:35;;;;;;;4.47;2.35;;;;;;;;;;10236837;28;20046;-59
2023/07/13 01:25:37;;;;;;;5.05;2.40;;;;;;;;;;10249009;28;20035;-58
2023/07/13 01:30:40;;;;;;;4.88;2.40;;;;;;;;;;10246554;28;20043;-59
2023/07/13 01:35:41;;;;;;;4.10;2.03;;;;;;;;;;10247405;28;20037;-57
2023/07/13 01:40:42;;;;;;;3.28;2.20;;;;;;;;;;10248173;28;20521;-58
2023/07/13 01:45:43;;;;;;;2.45;1.75;;;;;;;;;;10247888;28;20039;-56
2023/07/13 01:50:44;;;;;;;4.35;1.92;;;;;;;;;;10246891;28;20039;-52
2023/07/13 01:55:45;;;;;;;4.68;1.90;;;;;;;;;;10247037;28;20035;-55
2023/07/13 02:00:49;;;;;;;3.58;1.90;;;;;;;;;;10246949;28;20035;-59
2023/07/13 02:05:50;;;;;;;3.55;2.22;;;;;;;;;;10247532;28;20027;-58
2023/07/13 02:10:50;;;;;;;1.98;1.77;;;;;;;;;;10246206;28;20043;-60
2023/07/13 02:15:51;;;;;;;2.88;1.80;;;;;;;;;;10247545;28;20058;-59
2023/07/13 02:20:52;;;;;;;5.28;1.90;;;;;;;;;;10247299;28;20466;-60
2023/07/13 02:25:57;;;;;;;3.80;2.03;;;;;;;;;;10246520;28;20035;-60
2023/07/13 02:31:08;;;;;;;2.92;1.73;;;;;;;;;;10246607;28;20591;-59
2023/07/13 02:36:10;;;;;;;3.95;1.55;;;;;;;;;;10247284;28;20039;-62
2023/07/13 02:41:12;;;;;;;4.03;1.65;;;;;;;;;;10240729;28;20453;-59
2023/07/13 02:46:13;;;;;;;3.45;1.92;;;;;;;;;;10245772;28;20027;-59
2023/07/13 02:51:13;;;;;;;2.50;1.60;;;;;;;;;;10243704;28;20126;-59
2023/07/13 02:56:14;;;;;;;2.10;1.60;;;;;;;;;;10245213;28;20039;-59
2023/07/13 03:01:18;;;;;;;1.58;1.45;;;;;;;;;;10241171;28;20047;-59
2023/07/13 03:06:19;;;;;;;3.03;1.75;;;;;;;;;;10243610;28;20160;-59
2023/07/13 03:11:20;;;;;;;2.80;1.60;;;;;;;;;;10246345;28;20027;-59
2023/07/13 03:16:21;;;;;;;2.25;1.48;;;;;;;;;;10244185;28;20054;-60
2023/07/13 03:21:22;;;;;;;2.40;1.92;;;;;;;;;;10243550;28;20042;-59
2023/07/13 03:26:22;;;;;;;2.88;1.60;;;;;;;;;;10243228;28;20031;-58
2023/07/13 03:31:28;;;;;;;1.70;1.50;;;;;;;;;;10246355;28;20094;-59
2023/07/13 03:36:30;;;;;;;2.08;1.55;;;;;;;;;;10244296;28;20034;-59
2023/07/13 03:41:31;;;;;;;2.85;1.55;;;;;;;;;;10244459;28;20387;-59
2023/07/13 03:46:33;;;;;;;9.70;1.83;;;;;;;;;;10244898;28;20024;-58
2023/07/13 03:51:34;;;;;;;1.48;1.33;;;;;;;;;;10244516;28;20114;-59
2023/07/13 03:56:34;;;;;;;2.17;1.30;;;;;;;;;;10244887;28;20031;-59
2023/07/13 04:01:35;;;;;;;2.67;1.30;;;;;;;;;;10244715;28;20047;-60
2023/07/13 04:06:35;;;;;;;4.40;1.65;;;;;;;;;;10244714;28;20031;-59
2023/07/13 04:11:36;;;;;;;1.40;1.30;;;;;;;;;;10243553;28;20126;-59
2023/07/13 04:16:37;;;;;;;1.70;1.33;;;;;;;;;;10242223;28;20051;-59
2023/07/13 04:21:37;;;;;;;1.55;1.20;;;;;;;;;;10242980;28;20034;-59
2023/07/13 04:26:39;;;;;;;2.30;1.15;;;;;;;;;;10241034;28;20470;-59
2023/07/13 04:31:39;;;;;;;1.20;1.10;;;;;;;;;;10240689;28;20036;-59
2023/07/13 04:36:40;;;;;;;1.50;1.23;;;;;;;;;;10238968;28;20114;-60
2023/07/13 04:41:41;;;;;;;2.03;1.17;;;;;;;;;;10240418;28;20035;-58
2023/07/13 04:46:41;;;;;;;1.52;1.40;;;;;;;;;;10242659;28;20039;-59
2023/07/13 04:51:42;;;;;;;3.20;1.65;;;;;;;;;;10235062;28;20383;-60
2023/07/13 04:56:42;;;;;;;1.80;1.45;;;;;;;;;;10247260;28;20031;-59
2023/07/13 05:01:43;;;;;;;1.65;1.40;;;;;;;;;;10242115;28;20055;-58
2023/07/13 05:06:43;;;;;;;1.88;1.55;;;;;;;;;;10249743;28;20027;-64
2023/07/13 05:11:44;;;;;;;1.77;1.05;;;;;;;;;;10248010;28;20042;-59
2023/07/13 05:16:45;;;;;;;2.70;1.45;;;;;;;;;;10248130;28;20039;-59
2023/07/13 05:21:45;;;;;;;1.90;1.30;;;;;;;;;;10243633;28;20039;-59
2023/07/13 05:26:46;;;;;;;1.77;1.20;;;;;;;;;;10248526;28;20031;-59
2023/07/13 05:31:47;;;;;;;1.85;1.52;;;;;;;;;;10240758;28;20608;-59
2023/07/13 05:36:48;;;;;;;5.45;1.40;;;;;;;;;;10246053;28;20161;-59
2023/07/13 05:41:49;;;;;;;5.47;1.42;;;;;;;;;;10244669;28;20036;-60
2023/07/13 05:46:50;;;;;;;6.28;1.27;;;;;;;;;;10249601;28;20042;-65
2023/07/13 05:51:50;;;;;;;3.70;1.30;;;;;;;;;;10229900;28;20403;-65
2023/07/13 05:56:51;;;;;;;2.25;1.30;;;;;;;;;;10247877;28;20061;-64
2023/07/13 06:01:54;;;;;;;3.80;1.50;;;;;;;;;;10248679;28;20047;-58
2023/07/13 06:06:55;;;;;;;5.75;1.27;;;;;;;;;;10247114;28;21580;-62
2023/07/13 06:11:56;;;;;;;3.10;1.08;;;;;;;;;;10236733;28;20039;-60
2023/07/13 06:16:56;;;;;;;7.82;1.60;;;;;;;;;;10240731;28;20043;-58
2023/07/13 06:21:58;;;;;;;11.18;2.53;;;;;;;;;;10241520;28;20042;-58
2023/07/13 06:26:58;;;;;;;10.27;2.58;;;;;;;;;;10248918;28;20027;-61
2023/07/13 06:31:59;;;;;;;15.80;2.50;;;;;;;;;;10247716;28;20466;-59
2023/07/13 06:37:00;;;;;;;8.95;2.10;;;;;;;;;;10247789;28;20027;-59
2023/07/13 06:42:00;;;;;;;6.78;2.03;;;;;;;;;;10247740;28;20368;-59
2023/07/13 06:47:01;;;;;;;8.57;2.58;;;;;;;;;;10247432;28;20023;-59
2023/07/13 06:52:02;;;;;;;13.55;2.13;;;;;;;;;;10247233;28;20398;-59
2023/07/13 06:57:03;;;;;;;4.90;2.28;;;;;;;;;;10247153;28;20122;-59
2023/07/13 07:02:04;;;;;;;8.73;1.83;;;;;;;;;;10245440;28;20043;-59
2023/07/13 07:07:05;;;;;;;9.43;2.10;;;;;;;;;;10246435;28;20048;-59
2023/07/13 07:12:06;;;;;;;6.75;1.98;;;;;;;;;;10246000;28;20159;-65
2023/07/13 07:17:06;;;;;;;6.32;2.45;;;;;;;;;;10245707;28;20105;-62
2023/07/13 07:22:07;;;;;;;7.05;1.90;;;;;;;;;;10245966;28;20027;-59
2023/07/13 07:27:08;;;;;;;5.45;2.03;;;;;;;;;;10246058;28;20031;-62
2023/07/13 07:32:08;;;;;;;6.25;2.13;;;;;;;;;;10245867;28;20427;-59
2023/07/13 07:37:12;;;;;;;8.45;1.90;;;;;;;;;;10245678;28;20023;-59
2023/07/13 07:42:13;;;;;;;9.60;1.70;;;;;;;;;;10245191;28;20078;-59
2023/07/13 07:47:13;;;;;;;7.47;1.60;;;;;;;;;;10245246;28;20031;-58
2023/07/13 07:52:14;;;;;;;2.90;1.38;;;;;;;;;;10245136;28;20386;-59
2023/07/13 07:57:14;;;;;;;8.55;1.52;;;;;;;;;;10245070;28;20035;-59
2023/07/13 08:02:15;;;;;;;8.10;1.73;;;;;;;;;;10244916;28;20059;-60
2023/07/13 08:07:16;;;;;;;8.45;1.50;;;;;;;;;;10245126;28;20035;-60
2023/07/13 08:12:16;;;;;;;4.65;1.30;;;;;;;;;;10244272;28;20471;-60
2023/07/13 08:17:17;;;;;;;7.60;1.85;;;;;;;;;;10244366;28;20035;-59
2023/07/13 08:22:17;;;;;;;3.85;1.40;;;;;;;;;;10244006;28;20023;-58
2023/07/13 08:27:19;;;;;;;4.95;1.25;;;;;;;;;;10245363;28;20031;-59
2023/07/13 08:32:22;;;;;;;6.20;1.50;;;;;;;;;;10252346;28;20039;-59
2023/07/13 08:37:23;;;;;;;4.45;1.60;;;;;;;;;;10250759;28;20058;-58
2023/07/13 08:42:46;;;;;;;3.53;1.50;;;;;;;;;;10251792;28;20048;-59
2023/07/13 08:48:25;;;;;;;3.92;1.52;;;;;;;;;;10240582;28;20035;-58
2023/07/13 08:53:41;;;;;;;5.15;1.60;;;;;;;;;;10249403;28;20035;-59
2023/07/13 08:58:43;;;;;;;2.30;1.20;;;;;;;;;;10250951;28;20046;-60
2023/07/13 09:04:13;;;;;;;5.03;1.50;;;;;;;;;;10251155;28;20443;-59
2023/07/13 09:09:33;;;;;;;3.92;1.58;;;;;;;;;;10248340;28;20043;-62
2023/07/13 09:14:48;;;;;;;4.07;1.50;;;;;;;;;;10249820;28;20042;-61
2023/07/13 09:20:03;;;;;;;4.88;1.88;;;;;;;;;;10250502;28;20039;-58
2023/07/13 09:25:36;;;;;;;2.47;1.55;;;;;;;;;;10249351;28;20031;-58
2023/07/13 09:31:04;;;;;;;3.63;1.52;;;;;;;;;;10239438;28;20089;-59
2023/07/13 09:36:28;;;;;;;2.70;1.30;;;;;;;;;;10240786;28;20033;-59
2023/07/13 09:42:16;;;;;;;2.67;1.15;;;;;;;;;;10249124;28;20031;-58
2023/07/13 09:47:27;;;;;;;3.97;1.80;;;;;;;;;;10242625;28;20043;-58
2023/07/13 09:52:44;;;;;;;5.25;1.73;;;;;;;;;;10249382;28;20034;-58
2023/07/13 09:57:48;;;;;;;3.63;1.35;;;;;;;;;;10251816;28;20035;-59
2023/07/13 10:03:00;;;;;;;3.92;1.60;;;;;;;;;;10248544;28;20101;-59
2023/07/13 10:08:01;;;;;;;3.28;1.52;;;;;;;;;;10248505;28;20445;-58
2023/07/13 10:13:04;;;;;;;2.78;1.52;;;;;;;;;;10248394;28;20042;-58
2023/07/13 10:18:05;;;;;;;2.45;1.20;;;;;;;;;;10248561;28;20126;-59
2023/07/13 10:23:24;;;;;;;2.58;1.45;;;;;;;;;;10246625;28;20471;-59
2023/07/13 10:28:38;;;;;;;6.88;1.70;;;;;;;;;;10246487;28;20031;-59
2023/07/13 10:33:38;;;;;;;2.65;1.55;;;;;;;;;;10247371;28;20038;-59
2023/07/13 10:38:40;;;;;;;2.28;1.30;;;;;;;;;;10247452;28;20034;-59
2023/07/13 10:43:50;;;;;;;3.92;1.75;;;;;;;;;;10246069;28;20027;-58
2023/07/13 10:48:57;;;;;;;2.85;1.33;;;;;;;;;;10247051;28;20475;-58
2023/07/13 10:54:18;;;;;;;3.60;1.30;;;;;;;;;;10232152;28;20039;-59
2023/07/13 10:59:26;;;;;;;2.60;1.10;;;;;;;;;;10246625;28;20117;-59
2023/07/13 11:04:29;;;;;;;;;;;;;;;;;;10236806;28;20054;-58
2023/07/13 11:09:40;;;;;;;3.72;1.80;;;;;;;;;;10232706;28;20366;-58
2023/07/13 11:15:11;;;;;;;3.40;1.52;;;;;;;;;;10246119;28;20406;-59
2023/07/13 11:20:12;;;;;;;3.22;1.38;;;;;;;;;;10245820;28;20027;-58
2023/07/13 11:25:34;;;;;;;2.80;1.27;;;;;;;;;;10245436;28;20474;-59
2023/07/13 11:30:52;;;;;;;4.18;1.50;;;;;;;;;;10235128;28;20446;-62
2023/07/13 11:36:13;;;;;;;2.92;1.40;;;;;;;;;;10234263;28;20035;-58
2023/07/13 11:41:20;;;;;;;2.78;1.60;;;;;;;;;;10225615;28;20027;-60
2023/07/13 11:46:27;;;;;;;4.20;1.73;;;;;;;;;;10237151;28;20023;-58
2023/07/13 11:51:33;;;;;;;4.27;1.50;;;;;;;;;;10245258;28;20063;-59
2023/07/13 11:56:36;;;;;;;5.10;1.57;;;;;;;;;;10236674;28;20038;-60
2023/07/13 12:01:45;;;;;;;4.75;1.90;;;;;;;;;;10236661;28;20182;-64
2023/07/13 12:06:46;;;;;;;12.77;2.17;;;;;;;;;;10252645;28;20031;-63
2023/07/13 12:11:46;;;;;;;3.35;1.75;;;;;;;;;;10252369;28;20031;-59
2023/07/13 12:16:48;;;;;;;3.70;2.00;;;;;;;;;;10252818;28;20035;-58
2023/07/13 12:21:52;;;;;;;7.07;2.10;;;;;;;;;;10252637;28;20467;-58
2023/07/13 12:27:03;;;;;;;7.30;2.10;;;;;;;;;;10251334;28;20075;-58
2023/07/13 12:32:09;;;;;;;12.95;2.90;;;;;;;;;;10252339;28;20063;-59
2023/07/13 12:37:12;;;;;;;9.30;2.88;;;;;;;;;;10252150;28;20031;-59
2023/07/13 12:42:27;;;;;;;14.82;3.42;;;;;;;;;;10239276;28;20118;-59
2023/07/13 12:47:28;;;;;;;9.70;2.97;;;;;;;;;;10240295;28;20030;-59
2023/07/13 12:52:33;;;;;;;44.53;5.43;;;;;;;;;;10252384;28;20027;-60
2023/07/13 12:57:40;;;;;;;32.15;5.82;;;;;;;;;;10251842;28;20038;-59
2023/07/13 13:02:41;;;;;;;;;;;;;;;;;;10252748;28;20043;-59
2023/07/13 13:07:42;;;;;;;23.23;3.95;;;;;;;;;;10251412;28;20449;-59
2023/07/13 13:12:42;;;;;;;26.10;4.85;;;;;;;;;;10251243;28;20078;-61
2023/07/13 13:17:43;;;;;;;16.67;3.72;;;;;;;;;;10249546;28;20046;-59
2023/07/13 13:22:44;;;;;;;18.38;4.20;;;;;;;;;;10235578;28;20019;-59
2023/07/13 13:27:46;;;;;;;20.90;4.97;;;;;;;;;;10233323;28;20035;-60
2023/07/13 13:32:47;;;;;;;21.63;4.72;;;;;;;;;;10227237;28;20059;-62
2023/07/13 13:37:50;;;;;;;27.13;4.50;;;;;;;;;;10228284;28;20118;-61
2023/07/13 13:42:52;;;;;;;19.92;4.22;;;;;;;;;;10230226;28;20035;-59
2023/07/13 13:47:54;;;;;;;17.75;4.00;;;;;;;;;;10247152;28;20032;-59
2023/07/13 13:52:55;;;;;;;62.22;6.60;;;;;;;;;;10245619;28;20188;-59
2023/07/13 13:57:55;;;;;;;42.63;5.90;;;;;;;;;;10234171;28;20218;-59
2023/07/13 14:02:57;;;;;;;27.73;5.22;;;;;;;;;;10249326;28;20054;-57
2023/07/13 14:07:58;;;;;;;23.00;4.90;;;;;;;;;;10249298;28;20459;-57
2023/07/13 14:12:59;;;;;;;18.33;5.05;;;;;;;;;;10235794;28;20039;-57
2023/07/13 14:17:59;;;;;;;25.58;4.15;;;;;;;;;;10249150;28;20035;-57
2023/07/13 14:23:00;;;;;;;14.80;3.92;;;;;;;;;;10248677;28;20033;-56
2023/07/13 14:28:28;;;;;;;18.85;4.15;;;;;;;;;;10240116;28;20038;-57
2023/07/13 14:33:29;;;;;;;21.13;4.30;;;;;;;;;;10245678;28;20043;-56
2023/07/13 14:38:30;;;;;;;13.15;3.97;;;;;;;;;;10241404;28;20126;-57
2023/07/13 14:43:31;;;;;;;20.80;4.40;;;;;;;;;;10247771;28;20027;-54
2023/07/13 14:48:31;;;;;;;6.95;3.50;;;;;;;;;;10235133;28;20536;-55
2023/07/13 14:53:32;;;;;;;6.80;3.17;;;;;;;;;;10238536;28;20047;-54
2023/07/13 14:58:32;;;;;;;11.50;3.33;;;;;;;;;;10247607;28;20294;-54
2023/07/13 15:03:33;;;;;;;14.38;3.30;;;;;;;;;;10246920;28;20051;-51
2023/07/13 15:08:34;;;;;;;5.90;3.00;;;;;;;;;;10247136;28;20086;-55
2023/07/13 15:13:35;;;;;;;8.50;2.70;;;;;;;;;;10246313;28;20427;-51
2023/07/13 15:18:42;;;;;;;8.15;2.63;;;;;;;;;;10246758;28;20035;-54
2023/07/13 15:24:02;;;;;;;9.98;3.78;;;;;;;;;;10245078;28;20039;-52
2023/07/13 15:29:07;;;;;;;7.43;2.53;;;;;;;;;;10232438;28;20035;-52
2023/07/13 15:34:18;;;;;;;6.65;2.90;;;;;;;;;;10245869;28;20038;-51
2023/07/13 15:39:19;;;;;;;10.32;2.63;;;;;;;;;;10245904;28;20030;-50
2023/07/13 15:44:30;;;;;;;14.15;2.63;;;;;;;;;;10246084;28;20066;-49
2023/07/13 15:49:31;;;;;;;7.25;2.45;;;;;;;;;;10225448;28;20027;-51
2023/07/13 15:54:32;;;;;;;7.47;3.28;;;;;;;;;;10231760;28;20047;-50
2023/07/13 15:59:32;;;;;;;9.60;3.28;;;;;;;;;;10240914;28;20027;-49
2023/07/13 16:04:33;;;;;;;8.00;2.70;;;;;;;;;;10234933;28;20106;-51
2023/07/13 16:09:33;;;;;;;8.80;2.88;;;;;;;;;;10235101;28;20034;-51
2023/07/13 16:14:34;;;;;;;7.65;2.92;;;;;;;;;;10244412;28;20028;-53
2023/07/13 16:19:34;;;;;;;11.88;2.67;;;;;;;;;;10245050;28;20027;-52
2023/07/13 16:24:35;;;;;;;13.88;3.88;;;;;;;;;;10245314;28;20415;-49
2023/07/13 16:29:35;;;;;;;14.90;3.28;;;;;;;;;;10244912;28;20378;-52
2023/07/13 16:34:40;;;;;;;12.48;2.95;;;;;;;;;;10240926;28;20095;-51
2023/07/13 16:39:57;;;;;;;7.45;2.80;;;;;;;;;;10237246;28;20027;-50
2023/07/13 16:44:58;;;;;;;7.13;2.80;;;;;;;;;;10238981;28;20483;-49
2023/07/13 16:49:58;;;;;;;9.27;2.60;;;;;;;;;;10247086;28;20027;-51
2023/07/13 16:54:59;;;;;;;5.53;2.78;;;;;;;;;;10241876;28;20394;-50
2023/07/13 17:00:01;;;;;;;5.25;2.15;;;;;;;;;;10251736;28;20023;-51
2023/07/13 17:05:04;;;;;;;6.07;2.47;;;;;;;;;;10251018;28;20043;-53
2023/07/13 17:10:17;;;;;;;6.18;2.40;;;;;;;;;;10247631;28;20027;-52
2023/07/13 17:15:17;;;;;;;6.97;2.67;;;;;;;;;;10244963;28;20027;-52
2023/07/13 17:20:29;;;;;;;6.57;2.40;;;;;;;;;;10243631;28;20027;-55
2023/07/13 17:25:30;;;;;;;4.60;2.15;;;;;;;;;;10242814;28;20031;-52
2023/07/13 17:30:31;;;;;;;4.75;2.10;;;;;;;;;;10234764;28;20499;-54
2023/07/13 17:35:35;;;;;;;5.90;2.50;;;;;;;;;;10249626;28;20031;-50
2023/07/13 17:40:38;;;;;;;7.53;2.30;;;;;;;;;;10247337;28;20045;-51
2023/07/13 17:45:40;;;;;;;15.35;2.70;;;;;;;;;;10248262;28;20039;-52
2023/07/13 17:50:44;;;;;;;3.65;2.05;;;;;;;;;;10245267;28;20035;-51
2023/07/13 17:55:45;;;;;;;8.80;2.33;;;;;;;;;;10248008;28;20037;-52
2023/07/13 18:00:48;;;;;;;6.50;2.58;;;;;;;;;;10246192;28;20028;-51
2023/07/13 18:05:49;;;;;;;5.47;2.10;;;;;;;;;;10238685;28;20039;-57
2023/07/13 18:10:52;;;;;;;8.57;2.58;;;;;;;;;;10250066;28;20395;-55
2023/07/13 18:15:53;;;;;;;6.00;2.53;;;;;;;;;;10247504;28;20082;-56
2023/07/13 18:20:54;;;;;;;8.73;2.35;;;;;;;;;;10247136;28;20114;-57
2023/07/13 18:25:54;;;;;;;6.25;2.72;;;;;;;;;;10245802;28;20061;-58
2023/07/13 18:30:57;;;;;;;6.22;2.45;;;;;;;;;;10244776;28;20027;-58
2023/07/13 18:36:00;;;;;;;6.50;2.55;;;;;;;;;;10245249;28;20043;-58
2023/07/13 18:41:00;;;;;;;8.27;2.97;;;;;;;;;;10244567;28;20483;-58
2023/07/13 18:46:33;;;;;;;14.75;4.32;;;;;;;;;;10237479;28;20129;-58
2023/07/13 18:51:34;;;;;;;10.48;4.13;;;;;;;;;;10246459;28;20368;-58
2023/07/13 18:56:36;;;;;;;7.28;3.50;;;;;;;;;;10246180;28;20039;-58
2023/07/13 19:01:36;;;;;;;7.82;3.72;;;;;;;;;;10245108;28;20102;-58
2023/07/13 19:06:37;;;;;;;9.38;4.28;;;;;;;;;;10245600;28;20082;-58
2023/07/13 19:11:37;;;;;;;7.65;4.03;;;;;;;;;;10246188;28;20023;-58
2023/07/13 19:16:39;;;;;;;9.10;3.30;;;;;;;;;;10245280;28;20035;-58
2023/07/13 19:21:41;;;;;;;5.80;3.15;;;;;;;;;;10242341;28;20028;-58
2023/07/13 19:26:41;;;;;;;6.53;3.08;;;;;;;;;;10241989;28;20435;-58
2023/07/13 19:31:42;;;;;;;9.05;3.55;;;;;;;;;;10245442;28;20035;-58
2023/07/13 19:36:43;;;;;;;7.03;3.20;;;;;;;;;;10241966;28;20035;-59
2023/07/13 19:41:44;;;;;;;8.25;3.13;;;;;;;;;;10244086;28;20050;-58
2023/07/13 19:46:44;;;;;;;8.45;3.47;;;;;;;;;;10243162;28;20038;-57
2023/07/13 19:51:47;;;;;;;7.13;3.67;;;;;;;;;;10244480;28;20495;-50
2023/07/13 19:56:48;;;;;;;13.75;3.92;;;;;;;;;;10242215;28;20040;-49
2023/07/13 20:01:48;;;;;;;5.55;3.05;;;;;;;;;;10244581;28;20036;-53
2023/07/13 20:06:49;;;;;;;16.13;4.20;;;;;;;;;;10244376;28;20027;-51
2023/07/13 20:11:51;;;;;;;10.13;3.20;;;;;;;;;;10244065;28;20147;-52
2023/07/13 20:17:03;;;;;;;7.45;2.97;;;;;;;;;;10244740;28;20035;-50
2023/07/13 20:22:11;;;;;;;7.65;3.28;;;;;;;;;;10233108;28;20070;-52
2023/07/13 20:27:14;;;;;;;8.68;3.10;;;;;;;;;;10251284;28;20034;-51
2023/07/13 20:32:15;;;;;;;6.28;3.17;;;;;;;;;;10252113;28;20032;-50
2023/07/13 20:37:32;;;;;;;8.65;3.00;;;;;;;;;;10240806;28;20066;-49
2023/07/13 20:42:32;;;;;;;4.87;2.97;;;;;;;;;;10232250;28;20067;-51
2023/07/13 20:47:33;;;;;;;8.43;2.85;;;;;;;;;;10251694;28;20031;-50
2023/07/13 20:52:34;;;;;;;5.80;3.10;;;;;;;;;;10250956;28;20035;-52
2023/07/13 20:57:36;;;;;;;5.72;2.88;;;;;;;;;;10251326;28;20035;-50
2023/07/13 21:02:37;;;;;;;3.60;2.50;;;;;;;;;;10250576;28;20053;-55
2023/07/13 21:07:38;;;;;;;3.60;2.40;;;;;;;;;;10251061;28;20043;-49
2023/07/13 21:12:38;;;;;;;5.93;2.60;;;;;;;;;;10249951;28;20471;-53
2023/07/13 21:17:40;;;;;;;6.40;2.60;;;;;;;;;;10249955;28;20313;-52
2023/07/13 21:22:41;;;;;;;5.45;2.67;;;;;;;;;;10240132;28;20029;-50
2023/07/13 21:27:41;;;;;;;6.50;2.13;;;;;;;;;;10248956;28;20027;-57
2023/07/13 21:32:44;;;;;;;5.75;2.00;;;;;;;;;;10247693;28;20078;-57
2023/07/13 21:37:45;;;;;;;11.18;2.38;;;;;;;;;;10218982;28;20412;-56
2023/07/13 21:42:46;;;;;;;4.63;1.80;;;;;;;;;;10228104;28;20027;-56
2023/07/13 21:47:51;;;;;;;6.10;1.98;;;;;;;;;;10218467;28;20075;-56
2023/07/13 21:52:52;;;;;;;4.85;1.80;;;;;;;;;;10241833;28;20237;-54
2023/07/13 21:57:54;;;;;;;6.78;2.00;;;;;;;;;;10245939;28;20616;-56
2023/07/13 22:02:59;;;;;;;4.68;1.92;;;;;;;;;;10243671;28;20106;-58
2023/07/13 22:07:59;;;;;;;7.60;1.98;;;;;;;;;;10247914;28;20031;-59
2023/07/13 22:13:00;;;;;;;7.72;2.50;;;;;;;;;;10246667;28;20463;-60
2023/07/13 22:18:10;;;;;;;16.90;2.33;;;;;;;;;;10248289;28;20620;-59
2023/07/13 22:23:21;;;;;;;7.97;2.30;;;;;;;;;;10231542;28;20069;-60
2023/07/13 22:28:26;;;;;;;6.18;1.98;;;;;;;;;;10247574;28;20067;-59
2023/07/13 22:33:27;;;;;;;3.92;2.13;;;;;;;;;;10248501;28;20027;-60
2023/07/13 22:38:30;;;;;;;5.32;2.35;;;;;;;;;;10243930;28;20031;-59
2023/07/13 22:43:32;;;;;;;6.60;1.60;;;;;;;;;;10245168;28;20158;-60
2023/07/13 22:48:50;;;;;;;4.47;1.67;;;;;;;;;;10246158;28;20087;-60
2023/07/13 22:53:52;;;;;;;9.27;2.05;;;;;;;;;;10246823;28;20031;-60
2023/07/13 22:58:53;;;;;;;2.30;1.40;;;;;;;;;;10246499;28;20043;-60
2023/07/13 23:03:56;;;;;;;2.35;1.60;;;;;;;;;;10247629;23;20063;-57
2023/07/13 23:08:57;;;;;;;3.15;1.50;;;;;;;;;;10216791;29;20040;-57
2023/07/13 23:14:00;;;;;;;2.33;1.58;;;;;;;;;;10215052;29;20569;-57
2023/07/13 23:19:01;;;;;;;5.07;1.58;;;;;;;;;;10237045;28;20059;-57
2023/07/13 23:24:02;;;;;;;1.95;1.35;;;;;;;;;;10207400;29;20137;-57
2023/07/13 23:29:03;;;;;;;3.17;1.40;;;;;;;;;;10219733;29;20196;-57
2023/07/13 23:34:10;;;;;;;2.10;1.40;;;;;;;;;;10219875;29;20090;-58
2023/07/13 23:39:16;;;;;;;1.95;1.30;;;;;;;;;;10230216;29;20041;-59
2023/07/13 23:44:17;;;;;;;3.60;1.40;;;;;;;;;;10242933;29;20035;-59
2023/07/13 23:49:30;;;;;;;5.43;1.60;;;;;;;;;;10229888;28;20023;-58
2023/07/13 23:54:33;;;;;;;3.88;1.52;;;;;;;;;;10218837;29;20131;-58
2023/07/13 23:59:33;;;;;;;4.15;1.42;;;;;;;;;;10225431;29;20036;-58
